Latest Weather Observations for Mount Lofty

IDS60801

Issued at 6:02 pm CST Thursday 9 April 2020 (issued every 10 minutes, with the page automatically refreshed every 10 minutes)

About weather observations | Map of weather stations | Latest weather observations for SA | Other Formats
Station Details ID: 023842 Name: MOUNT LOFTY Lat: -34.98 Lon: 138.71 Height: 685.0 m
Data from the previous 72 hours. | See also: Recent months at Mount Lofty
Date/Time
CST
Temp
°C
App
Temp
°C
Dew
Point
°C
Rel
Hum
%
Delta-T
°C
Wind Press
QNH
hPa
Press
MSL
hPa
Rain since
9am
mm
Dir  Spd
km/h
Gust
km/h
Spd
kts
Gust
kts
09/06:00pm 13.1 12.5 10.5 84 1.4 SE 4 6 2 3 - - 0.0
09/05:30pm 14.4 14.0 11.0 80 1.9 SW 4 9 2 5 - - 0.0
09/05:00pm 15.8 15.5 11.4 75 2.5 SW 4 6 2 3 - - 0.0
09/04:30pm 16.5 15.7 11.2 71 3.0 WSW 6 7 3 4 - - 0.0
09/04:00pm 17.7 17.2 10.8 64 3.8 NNE 4 6 2 3 - - 0.0
09/03:30pm 17.2 16.8 11.2 68 3.4 WNW 4 9 2 5 - - 0.0
09/03:00pm 17.2 16.9 10.1 63 3.9 WSW 2 7 1 4 - - 0.0
09/02:30pm 17.9 16.7 7.9 52 5.3 ESE 4 11 2 6 - - 0.0
09/02:00pm 17.4 15.9 8.3 55 4.8 SE 6 11 3 6 - - 0.0
09/01:30pm 17.8 16.2 8.6 55 4.9 SE 7 13 4 7 - - 0.0
09/01:00pm 17.4 16.4 8.8 57 4.6 NE 4 11 2 6 - - 0.0
09/12:30pm 17.5 16.3 9.7 60 4.2 E 6 13 3 7 - - 0.0
09/12:00pm 16.3 15.5 9.7 65 3.6 E 4 7 2 4 - - 0.0
09/11:30am 15.7 14.8 9.4 66 3.4 SE 4 13 2 7 - - 0.0
09/11:00am 14.5 13.1 8.7 68 3.0 SE 6 15 3 8 - - 0.0
09/10:30am 14.2 12.7 9.0 71 2.7 ESE 7 15 4 8 - - 0.0
09/10:00am 13.6 12.0 8.9 73 2.5 ESE 7 17 4 9 - - 0.0
09/09:30am 13.2 11.9 9.3 77 2.1 E 6 15 3 8 - - 0.0
09/09:00am 12.6 11.2 9.4 81 1.7 ESE 7 13 4 7 - - 0.0
09/08:30am 10.9 9.7 9.5 91 0.7 ESE 6 9 3 5 - - 0.0
09/08:00am 9.3 7.8 9.2 99 0.1 ESE 7 9 4 5 - - 0.0
09/07:30am 8.5 7.0 8.4 99 0.1 ESE 6 7 3 4 - - 0.0
09/07:00am 7.9 6.3 7.8 99 0.0 ESE 6 9 3 5 - - 0.0
09/06:30am 7.7 5.8 7.6 99 0.0 ESE 7 9 4 5 - - 0.0
09/06:00am 7.9 6.1 7.8 99 0.0 ESE 7 9 4 5 - - 0.0
09/05:30am 7.8 5.9 7.7 99 0.0 ESE 7 11 4 6 - - 0.0
09/05:00am 7.9 6.3 7.8 99 0.0 ESE 6 9 3 5 - - 0.0
09/04:30am 7.9 6.1 7.8 99 0.0 ESE 7 13 4 7 - - 0.0
09/04:00am 7.8 5.9 7.7 99 0.0 ESE 7 11 4 6 - - 0.0
09/03:30am 8.2 6.4 8.1 99 0.0 ESE 7 11 4 6 - - 0.0
09/03:00am 8.4 6.9 8.3 99 0.0 ESE 6 11 3 6 - - 0.0
09/02:30am 8.7 6.7 8.6 99 0.1 ESE 9 15 5 8 - - 0.0
09/02:00am 8.8 5.7 8.7 99 0.1 ESE 15 24 8 13 - - 0.0
09/01:30am 9.1 5.7 9.0 99 0.1 ESE 17 30 9 16 - - 0.0
09/01:00am 9.4 6.4 9.3 99 0.1 ESE 15 26 8 14 - - 0.0
09/12:30am 9.7 6.4 9.6 99 0.1 ESE 17 26 9 14 - - 0.0
09/12:00am 9.9 7.0 9.8 99 0.1 ESE 15 28 8 15 - - 0.0
 
Date/Time
CST
Temp
°C
App
Temp
°C
Dew
Point
°C
Rel
Hum
%
Delta-T
°C
Wind Press
QNH
hPa
Press
MSL
hPa
Rain since
9am
mm
Dir  Spd
km/h
Gust
km/h
Spd
kts
Gust
kts
08/11:30pm 10.2 7.0 10.1 99 0.1 ESE 17 30 9 16 - - 0.0
08/11:00pm 10.2 7.0 10.1 99 0.1 ESE 17 33 9 18 - - 0.0
08/10:30pm 10.2 7.0 10.1 99 0.1 ESE 17 32 9 17 - - 0.0
08/10:00pm 10.1 6.9 10.0 99 0.1 ESE 17 30 9 16 - - 0.0
08/09:30pm 9.8 6.9 9.5 98 0.2 ESE 15 30 8 16 - - 0.0
08/09:00pm 9.8 6.5 9.5 98 0.2 ESE 17 28 9 15 - - 0.0
08/08:30pm 9.8 6.9 9.5 98 0.2 ESE 15 28 8 15 - - 0.0
08/08:00pm 9.8 6.8 9.3 97 0.3 ESE 15 24 8 13 - - 0.0
08/07:30pm 9.8 7.2 9.3 97 0.3 ESE 13 28 7 15 - - 0.0
08/07:00pm 9.8 7.2 9.2 96 0.3 ESE 13 24 7 13 - - 0.0
08/06:30pm 10.0 7.7 9.1 94 0.5 ESE 11 22 6 12 - - 0.0
08/06:00pm 10.3 7.5 8.6 89 0.9 ESE 13 28 7 15 - - 0.0
08/05:30pm 11.1 8.2 8.3 83 1.4 ESE 13 24 7 13 - - 0.0
08/05:00pm 12.0 8.7 7.9 76 2.1 ESE 15 24 8 13 - - 0.0
08/04:30pm 12.8 10.2 7.7 71 2.6 ESE 11 24 6 13 - - 0.0
08/04:00pm 13.3 10.6 7.5 68 2.9 SE 11 19 6 10 - - 0.0
08/03:30pm 13.5 11.2 7.3 66 3.1 ESE 9 22 5 12 - - 0.0
08/03:00pm 14.2 11.9 7.5 64 3.4 SE 9 19 5 10 - - 0.0
08/02:30pm 13.2 10.2 5.9 61 3.6 SE 11 22 6 12 - - 0.0
08/02:00pm 13.7 11.2 6.6 62 3.6 SE 9 20 5 11 - - 0.0
08/01:30pm 14.1 12.1 7.2 63 3.5 ESE 7 15 4 8 - - 0.0
08/01:00pm 14.0 12.2 8.0 67 3.1 ESE 7 19 4 10 - - 0.0
08/12:30pm 13.2 11.2 7.0 66 3.1 SE 7 17 4 9 - - 0.0
08/12:00pm 12.3 9.9 7.0 70 2.6 SE 9 17 5 9 - - 0.0
08/11:30am 12.0 9.7 7.5 74 2.3 ESE 9 19 5 10 - - 0.0
08/11:00am 10.2 6.9 6.5 78 1.8 ESE 13 22 7 12 - - 0.0
08/10:30am 10.5 8.4 8.3 86 1.1 SE 9 19 5 10 - - 0.0
08/10:00am 9.5 6.4 7.1 85 1.2 ESE 13 24 7 13 - - 0.0
08/09:30am 8.6 4.9 6.4 86 1.1 ESE 15 26 8 14 - - 0.0
08/09:00am 8.2 4.6 6.7 90 0.7 ESE 15 28 8 15 - - 0.0
08/08:30am 7.6 4.0 6.9 95 0.3 ESE 15 28 8 15 - - 0.0
08/08:00am 7.2 3.6 6.9 98 0.1 ESE 15 26 8 14 - - 0.0
08/07:30am 7.0 4.2 6.9 99 0.0 ESE 11 19 6 10 - - 0.0
08/07:00am 6.6 3.7 6.3 98 0.1 ESE 11 19 6 10 - - 0.0
08/06:30am 6.4 3.4 6.1 98 0.1 ESE 11 17 6 9 - - 0.0
08/06:00am 6.6 3.7 6.3 98 0.1 ESE 11 17 6 9 - - 0.0
08/05:30am 6.7 3.8 6.4 98 0.1 ESE 11 20 6 11 - - 0.0
08/05:00am 7.0 4.1 6.7 98 0.1 ESE 11 17 6 9 - - 0.0
08/04:30am 6.9 4.0 6.6 98 0.1 ESE 11 20 6 11 - - 0.0
08/04:00am 7.1 4.3 6.8 98 0.1 ESE 11 20 6 11 - - 0.0
08/03:30am 6.8 3.9 6.4 97 0.2 ESE 11 17 6 9 - - 0.0
08/03:00am 7.0 4.1 6.6 97 0.2 ESE 11 17 6 9 - - 0.0
08/02:30am 7.3 4.8 6.7 96 0.3 ESE 9 17 5 9 - - 0.0
08/02:00am 7.6 4.8 7.0 96 0.3 ESE 11 19 6 10 - - 0.0
08/01:30am 7.7 5.0 7.3 97 0.2 ESE 11 17 6 9 - - 0.0
08/01:00am 7.8 5.1 7.4 97 0.2 ESE 11 19 6 10 - - 0.0
08/12:30am 8.0 5.8 7.7 98 0.1 ESE 9 20 5 11 - - 0.0
08/12:00am 8.3 6.1 8.0 98 0.1 ESE 9 15 5 8 - - 0.0
 
Date/Time
CST
Temp
°C
App
Temp
°C
Dew
Point
°C
Rel
Hum
%
Delta-T
°C
Wind Press
QNH
hPa
Press
MSL
hPa
Rain since
9am
mm
Dir  Spd
km/h
Gust
km/h
Spd
kts
Gust
kts
07/11:30pm 9.0 6.6 8.7 98 0.2 ESE 11 19 6 10 - - 0.0
07/11:00pm 9.2 6.9 8.9 98 0.2 ESE 11 19 6 10 - - 0.0
07/10:30pm 9.2 6.9 8.9 98 0.2 ESE 11 17 6 9 - - 0.0
07/10:00pm 9.4 7.5 8.9 97 0.3 ESE 9 17 5 9 - - 0.0
07/09:30pm 9.4 7.1 8.9 97 0.3 ESE 11 20 6 11 - - 0.0
07/09:00pm 9.4 7.1 8.9 97 0.3 ESE 11 20 6 11 - - 0.0
07/08:30pm 9.4 7.1 8.9 97 0.3 ESE 11 20 6 11 - - 0.0
07/08:00pm 9.3 6.9 8.8 97 0.3 ESE 11 17 6 9 - - 0.0
07/07:30pm 9.3 7.3 8.5 95 0.4 ESE 9 19 5 10 - - 0.0
07/07:00pm 9.8 7.9 8.9 94 0.5 ESE 9 17 5 9 - - 0.0
07/06:30pm 10.7 8.9 9.6 93 0.6 ESE 9 17 5 9 - - 0.0
07/06:00pm 11.4 9.8 10.1 92 0.7 ESE 9 19 5 10 - - 0.0
07/05:30pm 12.2 11.1 10.6 90 0.9 SE 7 13 4 7 - - 0.0
07/05:00pm 12.7 11.3 10.8 88 1.0 ESE 9 15 5 8 - - 0.0
07/04:30pm 13.0 11.6 10.9 87 1.1 ESE 9 17 5 9 - - 0.0
07/04:00pm 13.3 12.5 11.7 90 0.9 ESE 7 15 4 8 - - 0.0
07/03:30pm 12.5 11.7 11.1 91 0.8 SE 6 9 3 5 - - 0.0
07/03:00pm 12.5 12.0 10.7 89 1.0 SE 4 7 2 4 - - 0.0
07/02:30pm 12.8 12.0 11.0 89 1.0 ESE 6 11 3 6 - - 0.0
07/02:00pm 12.9 12.5 11.0 88 1.0 ESE 4 6 2 3 - - 0.0
07/01:30pm 13.2 13.2 11.1 87 1.1 ESE 2 6 1 3 - - 0.0
07/01:00pm 13.2 13.4 10.4 83 1.5 CALM 0 0 0 0 - - 0.0
07/12:30pm 14.2 14.1 9.6 74 2.5 CALM 0 2 0 1 - - 0.0
07/12:00pm 14.3 13.7 10.3 77 2.2 NNW 4 6 2 3 - - 0.0
07/11:30am 14.8 14.1 10.0 73 2.6 WNW 4 7 2 4 - - 0.0
07/11:00am 13.6 12.5 9.8 78 2.0 WNW 6 7 3 4 - - 0.0
07/10:30am 13.4 12.6 9.6 78 2.0 W 4 9 2 5 - - 0.0
07/10:00am 13.6 12.8 9.6 77 2.1 WNW 4 6 2 3 - - 0.0
07/09:30am 12.9 12.0 9.2 78 1.9 WNW 4 11 2 6 - - 0.0
07/09:00am 13.0 13.1 10.0 82 1.6 CALM 0 0 0 0 - - 0.2
07/08:30am 12.2 12.1 9.4 83 1.5 CALM 0 0 0 0 - - 0.2
07/08:00am 11.1 11.1 9.9 92 0.6 CALM 0 0 0 0 - - 0.2
07/07:30am 10.5 10.4 9.4 93 0.6 CALM 0 2 0 1 - - 0.2
07/07:00am 10.3 9.4 9.1 92 0.6 NE 4 7 2 4 - - 0.0
07/06:30am 9.8 9.3 9.2 96 0.3 NE 2 6 1 3 - - 0.0
07/06:00am 9.5 9.3 9.2 98 0.2 CALM 0 2 0 1 - - 0.0
07/05:30am 9.7 9.2 9.4 98 0.2 E 2 2 1 1 - - 0.0
07/05:00am 9.9 9.8 9.6 98 0.2 CALM 0 4 0 2 - - 0.0
07/04:30am 10.0 10.0 9.9 99 0.1 CALM 0 0 0 0 - - 0.0
07/04:00am 10.0 9.3 9.9 99 0.1 ESE 4 6 2 3 - - 0.0
07/03:30am 10.0 9.3 9.9 99 0.1 ESE 4 6 2 3 - - 0.0
07/03:00am 10.0 9.2 9.7 98 0.2 ESE 4 6 2 3 - - 0.0
07/02:30am 10.0 8.8 9.7 98 0.2 ESE 6 7 3 4 - - 0.0
07/02:00am 10.1 9.0 9.8 98 0.2 ESE 6 7 3 4 - - 0.0
07/01:30am 10.2 9.5 9.9 98 0.2 ESE 4 7 2 4 - - 0.0
07/01:00am 10.2 9.1 9.9 98 0.2 ESE 6 7 3 4 - - 0.0
07/12:30am 10.3 9.2 10.0 98 0.2 ESE 6 7 3 4 - - 0.0
07/12:00am 10.3 9.6 10.0 98 0.2 ESE 4 6 2 3 - - 0.0
 
Date/Time
CST
Temp
°C
App
Temp
°C
Dew
Point
°C
Rel
Hum
%
Delta-T
°C
Wind Press
QNH
hPa
Press
MSL
hPa
Rain since
9am
mm
Dir  Spd
km/h
Gust
km/h
Spd
kts
Gust
kts
06/11:30pm 10.3 9.6 10.0 98 0.2 ESE 4 6 2 3 - - 0.0
06/11:00pm 10.2 9.5 9.9 98 0.2 ESE 4 7 2 4 - - 0.0
06/10:30pm 10.3 9.2 10.0 98 0.2 ESE 6 7 3 4 - - 0.0
06/10:00pm 10.3 9.2 9.8 97 0.3 ESE 6 7 3 4 - - 0.0
06/09:30pm 10.3 9.2 9.8 97 0.3 ESE 6 7 3 4 - - 0.0
06/09:00pm 10.4 9.3 9.9 97 0.3 ESE 6 9 3 5 - - 0.0
06/08:30pm 10.5 9.4 9.9 96 0.3 ESE 6 7 3 4 - - 0.0
06/08:00pm 10.8 9.7 10.0 95 0.4 ESE 6 9 3 5 - - 0.0
06/07:30pm 11.2 10.6 10.3 94 0.5 ESE 4 7 2 4 - - 0.0
06/07:00pm 11.5 10.9 10.4 93 0.6 ESE 4 7 2 4 - - 0.0
06/06:30pm 11.8 11.9 10.2 90 0.9 CALM 0 0 0 0 - - 0.0

Other formats

Comma delimited format used in spreadsheet applications
http://www.bom.gov.au/fwo/IDS60801/IDS60801.95678.axf

JavaScript Object Notation format (JSON) in row-major order
http://www.bom.gov.au/fwo/IDS60801/IDS60801.95678.json

Data quality

Most of these data are generated automatically and are frequently updated. Quality checks on data are not normally performed. It is possible for incorrect values to appear. Refer to information at About Latest Weather Observations and please check the disclaimer before using these data.